Catàleg de serveis del Meteocat
Campanya meteocatpedra

Dades de l'estació automàtica Lleida - la Femosa

?
?
Resum diari 23:00 TU
Dades diàries de l'estació meteorològica
Temperatura mitjana 24.8 °C
Temperatura màxima 33.1 °C 16:04 TU
Temperatura mínima 16.7 °C 4:24 TU
Humitat relativa mitjana 50%
Precipitació acumulada 0.0 mm
Ratxa màxima del vent (10 m) 27.0 km/h - 263º 14:23 TU
Irradiació solar global 30.1 MJ/m2

El tram horari està expressat en Temps Universal (TU). Cal sumar una hora en horari d'hivern i dues en horari d'estiu per passar a l'hora oficial.

Lleida - la Femosa

Metadades estació meteorol´gica
Municipi Lleida
Comarca Segrià
Altitud 170 m
Data alta 21.08.2018
Estat actual Operativa
Dades de període
Període
TU
TM
°C
TX
°C
TN
°C
HRM
%
PPT
mm
VVM (10 m)
km/h
DVM (10 m)
graus
VVX (10 m)
km/h
RS
W/m2
00:00 - 00:30 21.0 21.2 20.6 62 0.0 13.3 225 22.7 0
00:30 - 01:00 20.2 20.5 20.0 64 0.0 11.9 223 19.8 0
01:00 - 01:30 19.7 20.1 19.3 65 0.0 10.8 220 18.0 0
01:30 - 02:00 19.0 19.2 18.7 67 0.0 11.2 212 15.8 0
02:00 - 02:30 18.6 18.8 18.3 68 0.0 9.7 218 13.7 0
02:30 - 03:00 18.2 18.3 18.1 69 0.0 10.1 209 14.0 0
03:00 - 03:30 18.0 18.2 17.8 68 0.0 10.1 208 13.7 0
03:30 - 04:00 17.5 17.9 17.2 70 0.0 8.6 205 13.0 0
04:00 - 04:30 16.9 17.1 16.7 73 0.0 7.2 192 10.8 0
04:30 - 05:00 16.9 17.0 16.9 73 0.0 7.9 186 11.9 8
05:00 - 05:30 17.6 18.2 17.0 72 0.0 5.8 194 9.4 63
05:30 - 06:00 18.7 19.1 18.3 68 0.0 4.3 241 10.4 127
06:00 - 06:30 19.4 19.9 19.0 64 0.0 8.3 215 15.5 219
06:30 - 07:00 20.3 20.5 20.0 63 0.0 10.4 231 17.3 309
07:00 - 07:30 20.9 21.3 20.5 62 0.0 8.6 237 14.4 389
07:30 - 08:00 21.6 22.0 21.3 60 0.0 10.4 236 20.5 487
08:00 - 08:30 22.5 23.1 22.1 59 0.0 10.4 237 18.0 573
08:30 - 09:00 23.3 23.9 22.7 58 0.0 10.4 242 21.2 672
09:00 - 09:30 24.0 24.7 23.3 57 0.0 11.5 245 18.4 752
09:30 - 10:00 25.0 25.6 24.6 54 0.0 10.4 245 19.1 821
10:00 - 10:30 25.7 26.3 25.2 52 0.0 10.1 254 20.9 879
10:30 - 11:00 26.7 27.2 26.3 49 0.0 10.4 248 18.4 925
11:00 - 11:30 27.7 28.7 27.0 46 0.0 9.7 242 16.6 951
11:30 - 12:00 28.8 29.2 28.1 44 0.0 12.6 242 23.4 967
12:00 - 12:30 29.4 30.2 28.7 40 0.0 11.9 243 23.0 975
12:30 - 13:00 30.2 30.7 29.5 34 0.0 12.6 265 25.2 969
13:00 - 13:30 30.8 31.5 30.3 35 0.0 11.5 257 22.7 943
13:30 - 14:00 31.3 31.9 30.8 34 0.0 12.6 259 23.8 908
14:00 - 14:30 31.6 32.0 31.3 31 0.0 13.3 283 27.0 858
14:30 - 15:00 32.0 32.5 31.5 31 0.0 11.9 250 22.0 793
15:00 - 15:30 32.1 32.5 31.7 31 0.0 11.2 272 23.8 715
15:30 - 16:00 32.5 32.9 31.8 31 0.0 8.3 250 14.8 615
16:00 - 16:30 32.6 33.1 32.1 31 0.0 10.1 261 18.0 546
16:30 - 17:00 32.6 32.8 32.2 30 0.0 9.7 248 17.3 445
17:00 - 17:30 32.4 32.7 32.1 28 0.0 9.4 273 17.3 361
17:30 - 18:00 32.1 32.7 31.4 29 0.0 8.3 262 15.5 260
18:00 - 18:30 30.9 31.3 30.3 30 0.0 8.3 252 14.8 165
18:30 - 19:00 30.2 30.4 29.7 32 0.0 5.0 265 14.8 79
19:00 - 19:30 28.6 29.6 27.4 35 0.0 6.5 290 11.5 17
19:30 - 20:00 25.5 27.3 24.8 46 0.0 7.9 220 14.0 0
20:00 - 20:30 24.6 24.9 24.5 48 0.0 8.3 208 13.7 0
20:30 - 21:00 24.1 24.7 23.7 47 0.0 7.6 211 11.2 0
21:00 - 21:30 23.3 23.9 22.7 49 0.0 9.7 208 15.8 0
21:30 - 22:00 22.6 23.2 22.1 49 0.0 9.0 207 14.4 0
22:00 - 22:30 22.1 22.8 21.6 48 0.0 6.5 223 13.7 0
22:30 - 23:00 22.2 22.6 21.5 49 0.0 2.5 1 5.0 0
23:00 - 23:30 22.2 22.9 21.0 57 0.0 2.9 153 12.2 0

Les dades en taronja només han passat un control de qualitat automàtic. Resta pendent la seva validació definitiva.